Latest Coastal Weather Observations for Portland Airport

IDV60701

Issued at 9:41 am EDT Sunday 1 February 2015 (issued every 10 minutes, with the page automatically refreshed every 10 minutes)

About coastal observations | Map of coastal stations | Coastal observations for VIC | Marine services | Other Formats
Station Details ID: 090171 Name: CASHMORE AIRPORT Lat: -38.31 Lon: 141.47 Height: 80.9 m
Data from the previous 72 hours. | See also: Recent months at Portland Airport
Date/Time
EDT
Temp

°C
Wind Pressure Rain
since 9am
mm
Weather Cloud Vis
km
Sea
Height
m
Swell
Dir
 
Speed
knots
Gust
knots
hPa Trend Height
m
Period
s
Dir
01/09:30am 14.1 SSE 11 17 1017.2 - 0.2 - Partly cloudy 10 - - - -
01/09:00am 13.6 SSE 7 14 1016.9 - 0.0 - Cloudy 10 - - - -
01/08:30am 13.8 S 8 12 1016.5 - 0.0 - Partly cloudy 10 - - - -
01/08:00am 13.7 SSE 7 9 1016.2 - 0.0 - Cloudy 10 - - - -
01/07:30am 12.8 S 8 14 1015.9 - 0.0 - Partly cloudy 10 - - - -
01/07:00am 12.9 S 7 11 1015.7 - 0.0 - Partly cloudy 10 - - - -
01/06:30am 13.6 SSE 8 13 1015.5 - 0.0 - Partly cloudy 10 - - - -
01/06:00am 13.1 SSE 7 12 1015.3 - 0.0 - Mostly cloudy 10 - - - -
01/05:30am 12.9 S 8 13 1015.3 - 0.0 - Partly cloudy 10 - - - -
01/05:00am 13.1 S 6 9 1015.2 - 0.0 - Partly cloudy 10 - - - -
01/04:30am 12.9 S 9 15 1015.2 - 0.0 - Partly cloudy 10 - - - -
01/04:00am 13.2 SSE 6 10 1015.4 - 0.0 - Partly cloudy 10 - - - -
01/03:30am 14.3 S 8 12 1015.6 - 0.0 - Cloudy 10 - - - -
01/03:00am 14.1 S 7 11 1015.9 - 0.0 - Cloudy 10 - - - -
01/02:30am 14.3 S 8 13 1016.1 - 0.0 - Cloudy 10 - - - -
01/02:00am 14.3 SSE 9 15 1016.3 - 0.0 - Cloudy 10 - - - -
01/01:30am 14.2 SSE 7 12 1016.5 - 0.0 - Cloudy 10 - - - -
01/01:00am 14.1 SSE 9 15 1016.4 - 0.0 - Partly cloudy 10 - - - -
01/12:30am 14.2 S 8 11 1016.6 - 0.0 - Partly cloudy 10 - - - -
01/12:00am 14.1 S 8 12 1016.7 - 0.0 - Cloudy 10 - - - -
 
Date/Time
EDT
Temp

°C
Wind Pressure Rain
since 9am
mm
Weather Cloud Vis
km
Sea
Height
m
Swell
Dir
 
Speed
knots
Gust
knots
hPa Trend Height
m
Period
s
Dir
31/11:30pm 14.3 S 9 15 1016.8 - 0.0 - Partly cloudy 10 - - - -
31/11:00pm 14.1 S 8 12 1017.0 - 0.0 - Partly cloudy 10 - - - -
31/10:30pm 13.1 SSE 5 8 1016.9 - 0.0 - Partly cloudy 10 - - - -
31/10:00pm 13.4 S 7 12 1016.9 - 0.0 - Partly cloudy 10 - - - -
31/09:30pm 13.8 SSE 6 10 1016.8 - 0.0 - Cloudy 10 - - - -
31/09:00pm 13.6 SSE 8 14 1016.7 - 0.0 - Cloudy 10 - - - -
31/08:30pm 14.6 S 8 13 1016.5 - 0.0 - Partly cloudy 10 - - - -
31/08:00pm 14.9 SSE 9 14 1016.3 - 0.0 - Cloudy 10 - - - -
31/07:30pm 15.1 S 10 17 1016.1 - 0.0 - Partly cloudy 10 - - - -
31/07:00pm 15.6 S 11 15 1016.0 - 0.0 - Partly cloudy 10 - - - -
31/06:30pm 15.7 S 12 18 1015.6 - 0.0 - Partly cloudy 10 - - - -
31/06:00pm 16.9 S 11 16 1015.7 - 0.0 - Cloudy 10 - - - -
31/05:30pm 17.1 S 11 19 1015.9 - 0.0 - Partly cloudy 10 - - - -
31/05:00pm 16.2 S 12 19 1016.1 - 0.0 - Partly cloudy 10 - - - -
31/04:30pm 17.0 S 11 19 1016.3 - 0.0 - Partly cloudy 10 - - - -
31/04:00pm 17.2 S 11 19 1016.2 - 0.0 - Partly cloudy 10 - - - -
31/03:30pm 16.8 S 12 19 1016.4 - 0.0 - Partly cloudy 10 - - - -
31/03:00pm 15.5 S 11 18 1016.5 - 0.0 - Cloudy 10 - - - -
31/02:30pm 16.3 S 11 16 1016.3 - 0.0 - Cloudy 10 - - - -
31/02:00pm 16.1 S 10 17 1016.6 - 0.0 - Partly cloudy 10 - - - -
31/01:30pm 16.4 S 10 16 1016.5 - 0.0 - Partly cloudy 10 - - - -
31/01:00pm 16.7 S 10 18 1016.5 - 0.0 - Partly cloudy 10 - - - -
31/12:30pm 16.5 SSE 12 19 1016.7 - 0.0 - Partly cloudy 10 - - - -
31/12:00pm 16.2 S 11 19 1016.9 - 0.0 - Cloudy 10 - - - -
31/11:30am 17.0 SSE 9 15 1016.7 - 0.0 - Partly cloudy 10 - - - -
31/11:00am 16.2 SSE 10 16 1016.5 - 0.0 - Cloudy 10 - - - -
31/10:30am 16.4 SSE 12 18 1016.4 - 0.0 - Partly cloudy 10 - - - -
31/10:00am 16.0 SSE 11 17 1016.1 - 0.0 - Cloudy 10 - - - -
31/09:30am 15.5 SSE 11 21 1016.1 - 0.0 - Partly cloudy 10 - - - -
31/09:00am 15.7 SSE 12 18 1015.6 - 0.0 - Mostly cloudy 10 - - - -
31/08:30am 15.1 SSE 11 17 1015.3 - 0.0 - Partly cloudy 10 - - - -
31/08:00am 15.0 SSE 12 24 1015.1 - 0.0 - Partly cloudy 10 - - - -
31/07:30am 14.6 SSE 11 16 1015.0 - 0.0 - Partly cloudy 10 - - - -
31/07:00am 14.8 SE 11 17 1014.8 - 0.0 - Partly cloudy 10 - - - -
31/06:30am 14.7 SSE 10 16 1014.8 - 0.0 - Cloudy 10 - - - -
31/06:00am 14.5 SSE 11 17 1015.0 - 0.0 - Cloudy 10 - - - -
31/05:30am 14.8 SSE 9 15 1015.1 - 0.0 - Partly cloudy 10 - - - -
31/05:00am 14.6 SSE 9 14 1015.2 - 0.0 - Partly cloudy 10 - - - -
31/04:30am 14.9 SSE 9 14 1015.0 - 0.0 - Cloudy 10 - - - -
31/04:00am 14.8 SSE 11 17 1015.0 - 0.0 - Partly cloudy 10 - - - -
31/03:30am 14.7 SSE 10 17 1014.9 - 0.0 - Partly cloudy 10 - - - -
31/03:00am 14.9 SSE 10 16 1014.9 - 0.0 - Cloudy 10 - - - -
31/02:30am 14.9 SSE 11 18 1015.3 - 0.0 - Partly cloudy 10 - - - -
31/02:00am 14.9 SSE 11 17 1015.6 - 0.0 - Partly cloudy 10 - - - -
31/01:30am 14.9 SSE 9 16 1015.8 - 0.0 - Partly cloudy 10 - - - -
31/01:00am 14.9 SSE 11 17 1015.9 - 0.0 - Partly cloudy 10 - - - -
31/12:30am 14.8 SSE 10 16 1016.0 - 0.0 - Partly cloudy 10 - - - -
31/12:00am 15.2 SSE 10 17 1016.3 - 0.0 - Mostly cloudy 10 - - - -
 
Date/Time
EDT
Temp

°C
Wind Pressure Rain
since 9am
mm
Weather Cloud Vis
km
Sea
Height
m
Swell
Dir
 
Speed
knots
Gust
knots
hPa Trend Height
m
Period
s
Dir
30/11:30pm 15.2 SSE 9 14 1016.5 - 0.0 - Partly cloudy 10 - - - -
30/11:00pm 15.1 SSE 11 16 1016.6 - 0.0 - Partly cloudy 10 - - - -
30/10:30pm 15.3 SSE 9 15 1016.7 - 0.0 - Partly cloudy 10 - - - -
30/10:00pm 14.9 SSE 10 15 1016.8 - 0.0 - Partly cloudy 10 - - - -
30/09:30pm 15.3 SSE 11 16 1016.5 - 0.0 - Partly cloudy 10 - - - -
30/09:00pm 15.5 SSE 9 16 1016.5 - 0.0 - Mostly cloudy 10 - - - -
30/08:30pm 15.9 SSE 11 17 1016.4 - 0.0 - Partly cloudy 10 - - - -
30/08:00pm 16.0 SE 13 19 1016.2 - 0.0 - Partly cloudy 10 - - - -
30/07:30pm 16.5 SE 13 20 1016.0 - 0.0 - Partly cloudy 10 - - - -
30/07:00pm 16.6 SSE 10 15 1016.1 - 0.0 - Partly cloudy 10 - - - -
30/06:30pm 17.6 SSE 13 19 1016.0 - 0.0 - Cloudy 10 - - - -
30/06:00pm 17.7 S 11 18 1016.2 - 0.0 - Cloudy 10 - - - -
30/05:30pm 17.7 SSE 11 16 1016.5 - 0.0 - Partly cloudy 10 - - - -
30/05:00pm 16.9 S 9 14 1016.7 - 0.0 - Partly cloudy 10 - - - -
30/04:30pm 18.1 SSE 9 14 1016.6 - 0.0 - Partly cloudy 10 - - - -
30/04:00pm 17.8 SSE 10 16 1016.9 - 0.0 - Partly cloudy 10 - - - -
30/03:30pm 18.1 SSE 11 18 1017.2 - 0.0 - Partly cloudy 10 - - - -
30/03:00pm 17.8 SSE 11 17 1017.5 - 0.0 - Mostly clear 10 - - - -
30/02:30pm 19.0 S 12 17 1017.9 - 0.0 - Partly cloudy 10 - - - -
30/02:00pm 17.7 S 12 16 1018.0 - 0.0 - Partly cloudy 10 - - - -
30/01:30pm 17.8 S 11 16 1018.3 - 0.0 - Partly cloudy 10 - - - -
30/01:00pm 18.7 S 10 17 1018.5 - 0.0 - Partly cloudy 10 - - - -
30/12:30pm 17.2 SSE 10 16 1018.7 - 0.0 - Partly cloudy 10 - - - -
30/12:00pm 17.2 SSE 11 16 1018.9 - 0.0 - Mostly cloudy 10 - - - -
30/11:30am 17.3 SSE 9 15 1019.0 - 0.0 - Partly cloudy 10 - - - -
30/11:00am 16.3 S 10 15 1019.1 - 0.0 - Partly cloudy 10 - - - -
30/10:30am 15.7 SSE 10 15 1019.1 - 0.0 - Partly cloudy 10 - - - -
30/10:00am 16.0 SSE 8 12 1019.2 - 0.0 - Partly cloudy 10 - - - -
30/09:30am 16.3 S 7 11 1019.3 - 0.0 - Partly cloudy 10 - - - -
30/09:00am 16.0 SSE 7 11 1019.3 - 0.0 - Partly cloudy 10 - - - -
30/08:30am 13.9 SSE 3 5 1019.2 - 0.0 - - 10 - - - -
30/08:00am 12.7 SSE 3 5 1018.9 - 0.0 - - 10 - - - -
30/07:30am 10.7 SSE 2 4 1018.7 - 0.0 - - 10 - - - -
30/07:00am 10.8 SSE 3 4 1018.6 - 0.0 - Partly cloudy 10 - - - -
30/06:30am 11.2 SSE 3 5 1018.4 - 0.0 - Partly cloudy 10 - - - -
30/06:00am 10.9 SSE 1 4 1018.2 - 0.0 - Mostly cloudy 10 - - - -
30/05:30am 11.3 SSE 3 4 1018.0 - 0.0 - Partly cloudy 10 - - - -
30/05:00am 11.4 SSE 4 6 1018.1 - 0.0 - Partly cloudy 10 - - - -
30/04:30am 10.3 SSE 3 4 1018.2 - 0.0 - Partly cloudy 10 - - - -
30/04:00am 10.5 SSE 3 4 1018.3 - 0.0 - - 10 - - - -
30/03:30am 12.1 SSE 5 6 1018.7 - 0.0 - Partly cloudy 10 - - - -
30/03:00am 12.3 SE 5 6 1018.9 - 0.0 - Mostly clear 10 - - - -
30/02:30am 13.0 SE 5 7 1019.1 - 0.0 - Partly cloudy 10 - - - -
30/02:00am 13.5 SE 6 8 1019.3 - 0.0 - Partly cloudy 10 - - - -
30/01:30am 14.2 SE 7 10 1019.6 - 0.0 - Cloudy 10 - - - -
30/01:00am 14.3 SE 7 9 1019.9 - 0.0 - Cloudy 10 - - - -
30/12:30am 14.2 SSE 7 9 1020.0 - 0.0 - Cloudy 10 - - - -
30/12:00am 13.7 SE 8 12 1020.2 - 0.0 - Partly cloudy 10 - - - -
 
Date/Time
EDT
Temp

°C
Wind Pressure Rain
since 9am
mm
Weather Cloud Vis
km
Sea
Height
m
Swell
Dir
 
Speed
knots
Gust
knots
hPa Trend Height
m
Period
s
Dir
29/11:30pm 13.8 SSE 7 10 1020.3 - 0.0 - Partly cloudy 10 - - - -
29/11:00pm 14.5 SE 8 11 1020.5 - 0.0 - Partly cloudy 10 - - - -
29/10:30pm 14.4 SE 9 14 1020.7 - 0.0 - Partly cloudy 10 - - - -
29/10:00pm 14.7 SE 10 14 1020.5 - 0.0 - Partly cloudy 10 - - - -
29/09:30pm 14.6 SE 11 16 1020.3 - 0.0 - - 10 - - - -
29/09:00pm 15.1 SE 11 16 1020.3 - 0.0 - Mostly clear 10 - - - -
29/08:30pm 15.7 SE 13 21 1020.1 - 0.0 - - 10 - - - -
29/08:00pm 16.3 SE 14 20 1020.1 - 0.0 - - 10 - - - -
29/07:30pm 16.8 SE 15 22 1019.9 - 0.0 - - 10 - - - -
29/07:00pm 17.6 SE 12 18 1019.8 - 0.0 - Partly cloudy 10 - - - -
29/06:30pm 18.4 ESE 13 20 1019.8 - 0.0 - Partly cloudy 10 - - - -
29/06:00pm 18.4 ESE 13 19 1019.8 - 0.0 - Mostly clear 10 - - - -
29/05:30pm 18.4 ESE 13 20 1019.9 - 0.0 - - 10 - - - -
29/05:00pm 19.2 ESE 14 22 1020.2 - 0.0 - Partly cloudy 10 - - - -
29/04:30pm 19.4 ESE 13 19 1020.5 - 0.0 - Partly cloudy 10 - - - -
29/04:00pm 19.9 SE 15 22 1020.6 - 0.0 - Partly cloudy 10 - - - -
29/03:30pm 20.0 SE 14 21 1020.7 - 0.0 - Partly cloudy 10 - - - -
29/03:00pm 19.3 SE 13 20 1021.0 - 0.0 - Mostly clear 10 - - - -
29/02:30pm 19.3 SE 13 18 1021.3 - 0.0 - Partly cloudy 10 - - - -
29/02:00pm 19.6 SE 13 18 1021.3 - 0.0 - Partly cloudy 10 - - - -
29/01:30pm 19.4 SE 12 19 1021.5 - 0.0 - Partly cloudy 10 - - - -
29/01:00pm 19.7 ESE 11 19 1021.9 - 0.0 - Partly cloudy 10 - - - -
29/12:30pm 19.1 SE 11 18 1022.0 - 0.0 - Partly cloudy 10 - - - -
29/12:00pm 18.5 SE 11 17 1022.1 - 0.0 - Cloudy 10 - - - -
29/11:30am 17.8 SE 11 16 1022.1 - 0.0 - Partly cloudy 10 - - - -
29/11:00am 17.6 SE 10 15 1022.2 - 0.0 - Partly cloudy 10 - - - -
29/10:30am 17.5 SE 10 16 1022.3 - 0.0 - Partly cloudy 10 - - - -
29/10:00am 16.7 SE 10 14 1022.3 - 0.0 - Partly cloudy 10 - - - -

Other Formats:

Comma delimited format used in spreadsheet applications
http://www.bom.gov.au/fwo/IDV60701/IDV60701.94828.axf

JavaScript Object Notation format (JSON) in row-major order
http://www.bom.gov.au/fwo/IDV60701/IDV60701.94828.json